createdAt,value
2019-04-10T00:02:29.288Z,37.35
2019-04-10T00:04:57.679Z,34.48
2019-04-10T00:07:25.996Z,36.15
2019-04-10T00:09:55.127Z,35.25
2019-04-10T00:12:23.661Z,35.13
2019-04-10T00:14:52.549Z,36.15
2019-04-10T00:17:20.979Z,37.70
2019-04-10T00:19:49.313Z,35.23
2019-04-10T00:22:17.996Z,36.40
2019-04-10T00:24:46.486Z,35.17
2019-04-10T00:27:14.761Z,35.55
2019-04-10T00:29:43.003Z,37.38
2019-04-10T00:32:11.945Z,35.43
2019-04-10T00:34:40.334Z,35.60
2019-04-10T00:37:21.292Z,33.42
2019-04-10T00:39:38.991Z,34.75
2019-04-10T00:42:08.418Z,32.85
2019-04-10T00:44:37.513Z,34.10
2019-04-10T00:47:06.583Z,34.30
2019-04-10T00:49:35.029Z,33.92
2019-04-10T00:52:03.874Z,32.80
2019-04-10T00:54:33.062Z,33.35
2019-04-10T00:57:01.429Z,31.02
2019-04-10T00:59:30.380Z,30.20
2019-04-10T01:01:58.713Z,31.65
2019-04-10T01:04:27.025Z,28.12
2019-04-10T01:06:55.345Z,31.17
2019-04-10T01:09:23.729Z,29.67
2019-04-10T01:11:52.146Z,27.98
2019-04-10T01:14:21.277Z,28.73
2019-04-10T01:16:49.770Z,27.25
2019-04-10T01:19:18.020Z,29.05
2019-04-10T01:21:46.482Z,28.20
2019-04-10T01:24:14.835Z,29.40
2019-04-10T01:26:43.316Z,30.65
2019-04-10T01:29:11.683Z,28.75
2019-04-10T01:31:39.926Z,24.80
2019-04-10T01:34:09.361Z,24.37
2019-04-10T01:36:37.848Z,21.40
2019-04-10T01:39:08.750Z,22.30
2019-04-10T01:41:37.204Z,22.27
2019-04-10T01:44:05.705Z,22.13
2019-04-10T01:46:35.831Z,20.75
2019-04-10T01:49:05.070Z,21.00
2019-04-10T01:51:33.688Z,21.35
2019-04-10T01:54:02.690Z,22.13
2019-04-10T01:56:33.716Z,23.50
2019-04-10T01:59:01.368Z,22.20
2019-04-10T02:01:32.457Z,21.87
2019-04-10T02:04:00.881Z,22.60
2019-04-10T02:06:29.453Z,23.92
2019-04-10T02:08:58.354Z,23.00
2019-04-10T02:11:27.977Z,22.37
2019-04-10T02:13:56.832Z,21.40
2019-04-10T02:16:25.616Z,22.95
2019-04-10T02:18:54.147Z,21.57
2019-04-10T02:21:23.438Z,22.25
2019-04-10T02:23:52.407Z,20.95
2019-04-10T02:26:21.317Z,21.97
2019-04-10T02:28:49.726Z,22.52
2019-04-10T02:31:19.153Z,23.47
2019-04-10T02:33:49.542Z,21.70
2019-04-10T02:36:19.392Z,23.27
2019-04-10T02:38:59.645Z,25.27
2019-04-10T02:41:19.240Z,23.52
2019-04-10T02:43:47.659Z,24.67
2019-04-10T02:46:15.919Z,24.10
2019-04-10T02:48:44.649Z,25.55
2019-04-10T02:51:13.700Z,24.52
2019-04-10T02:53:43.699Z,23.73
2019-04-10T02:56:13.527Z,22.62
2019-04-10T02:58:42.695Z,25.50
2019-04-10T03:01:11.370Z,24.23
2019-04-10T03:03:40.338Z,26.10
2019-04-10T03:06:09.233Z,25.25
2019-04-10T03:08:55.236Z,26.82
2019-04-10T03:11:11.586Z,26.85
2019-04-10T03:13:38.141Z,25.92
2019-04-10T03:16:07.538Z,27.90
2019-04-10T03:18:36.846Z,25.77
2019-04-10T03:21:05.162Z,23.42
2019-04-10T03:23:33.631Z,27.10
2019-04-10T03:26:02.091Z,26.35
2019-04-10T03:28:31.984Z,26.97
2019-04-10T03:31:02.271Z,25.90
2019-04-10T03:33:34.867Z,23.30
2019-04-10T03:36:03.103Z,23.35
2019-04-10T03:38:32.174Z,25.75
2019-04-10T03:41:00.507Z,24.57
2019-04-10T03:43:29.874Z,22.73
2019-04-10T03:45:59.120Z,24.27
2019-04-10T03:48:27.607Z,23.80
2019-04-10T03:50:57.123Z,24.47
2019-04-10T03:53:26.436Z,24.27
2019-04-10T03:55:54.747Z,23.65
2019-04-10T03:58:23.191Z,24.82
2019-04-10T04:00:52.195Z,24.30
2019-04-10T04:03:20.668Z,23.22
2019-04-10T04:05:48.977Z,28.10
2019-04-10T04:08:17.254Z,30.32
2019-04-10T04:10:45.528Z,34.08
2019-04-10T04:13:13.772Z,41.65
2019-04-10T04:15:42.188Z,49.38
2019-04-10T04:18:10.937Z,51.77
2019-04-10T04:20:39.295Z,52.17
2019-04-10T04:23:07.554Z,57.88
2019-04-10T04:25:36.605Z,59.38
2019-04-10T04:28:05.006Z,55.75
2019-04-10T04:30:34.075Z,53.30
2019-04-10T04:33:02.538Z,57.40
2019-04-10T04:35:31.278Z,55.23
2019-04-10T04:38:00.453Z,54.30
2019-04-10T04:40:29.951Z,55.23
2019-04-10T04:42:58.434Z,56.08
2019-04-10T04:45:27.614Z,56.70
2019-04-10T04:47:56.207Z,55.98
2019-04-10T04:50:24.719Z,55.58
2019-04-10T04:52:53.664Z,59.25
2019-04-10T04:55:22.027Z,51.13
2019-04-10T04:57:50.284Z,59.00
2019-04-10T05:00:18.618Z,57.73
2019-04-10T05:02:47.066Z,59.45
2019-04-10T05:05:16.415Z,56.60
2019-04-10T05:07:54.741Z,56.33
2019-04-10T05:10:15.385Z,58.20
2019-04-10T05:12:43.823Z,61.77
2019-04-10T05:15:12.976Z,54.53
2019-04-10T05:17:41.600Z,55.70
2019-04-10T05:20:09.923Z,55.85
2019-04-10T05:22:38.189Z,57.85
2019-04-10T05:25:06.927Z,54.27
2019-04-10T05:27:35.308Z,53.45
2019-04-10T05:30:06.205Z,54.55
2019-04-10T05:32:35.366Z,54.73
2019-04-10T05:35:07.407Z,56.90
2019-04-10T05:37:35.904Z,58.50
2019-04-10T05:40:07.575Z,52.15
2019-04-10T05:42:36.019Z,58.35
2019-04-10T05:45:07.051Z,52.48
2019-04-10T05:47:36.533Z,53.05
2019-04-10T05:50:06.146Z,53.50
2019-04-10T05:52:35.338Z,53.13
2019-04-10T05:55:04.284Z,53.42
2019-04-10T05:57:32.902Z,53.02
2019-04-10T06:00:01.323Z,55.15
2019-04-10T06:02:29.963Z,50.70
2019-04-10T06:04:58.396Z,51.98
2019-04-10T06:07:27.356Z,56.02
2019-04-10T06:10:02.013Z,52.75
2019-04-10T06:12:26.484Z,53.70
2019-04-10T06:14:54.774Z,54.90
2019-04-10T06:17:23.048Z,52.33
2019-04-10T06:19:51.343Z,54.85
2019-04-10T06:22:20.746Z,55.58
2019-04-10T06:24:49.147Z,53.80
2019-04-10T06:27:18.420Z,50.43
2019-04-10T06:29:47.661Z,52.00
2019-04-10T06:32:17.063Z,55.85
2019-04-10T06:34:46.062Z,50.55
2019-04-10T06:37:15.662Z,52.83
2019-04-10T06:39:44.998Z,53.55
2019-04-10T06:42:14.292Z,51.85
2019-04-10T06:44:42.603Z,51.73
2019-04-10T06:47:11.947Z,51.68
2019-04-10T06:49:40.676Z,49.45
2019-04-10T06:52:10.056Z,49.38
2019-04-10T06:54:38.571Z,49.80
2019-04-10T06:57:06.888Z,50.45
2019-04-10T06:59:35.183Z,55.52
2019-04-10T07:02:18.517Z,53.42
2019-04-10T07:04:44.241Z,50.70
2019-04-10T07:07:09.378Z,51.05
2019-04-10T07:09:33.832Z,55.48
2019-04-10T07:12:04.223Z,54.20
2019-04-10T07:14:35.098Z,54.45
2019-04-10T07:17:05.534Z,55.15
2019-04-10T07:19:32.422Z,53.90
2019-04-10T07:22:01.880Z,51.10
2019-04-10T07:24:34.527Z,50.33
2019-04-10T07:27:03.363Z,50.00
2019-04-10T07:29:31.139Z,53.52
2019-04-10T07:32:00.468Z,53.05
2019-04-10T07:34:29.950Z,52.73
2019-04-10T07:36:58.408Z,49.45
2019-04-10T07:39:29.512Z,50.60
2019-04-10T07:41:57.738Z,49.98
2019-04-10T07:44:26.241Z,51.02
2019-04-10T07:46:58.309Z,50.90
2019-04-10T07:49:29.652Z,46.98
2019-04-10T07:51:56.545Z,51.73
2019-04-10T07:54:24.926Z,48.70
2019-04-10T07:56:53.166Z,50.15
2019-04-10T07:59:21.650Z,52.17
2019-04-10T08:01:50.072Z,53.30
2019-04-10T08:04:18.361Z,50.10
2019-04-10T08:06:46.879Z,52.15
2019-04-10T08:09:15.216Z,51.50
2019-04-10T08:11:45.137Z,50.50
2019-04-10T08:14:13.388Z,51.75
2019-04-10T08:16:41.632Z,54.13
2019-04-10T08:19:10.407Z,51.45
2019-04-10T08:21:38.820Z,50.35
2019-04-10T08:24:07.398Z,51.20
2019-04-10T08:26:36.667Z,51.23
2019-04-10T08:29:05.727Z,53.28
2019-04-10T08:31:34.238Z,51.58
2019-04-10T08:34:03.282Z,53.10
2019-04-10T08:36:31.886Z,51.73
2019-04-10T08:39:00.398Z,53.10
2019-04-10T08:41:29.628Z,51.23
2019-04-10T08:43:58.879Z,52.38
2019-04-10T08:46:28.151Z,51.40
2019-04-10T08:48:56.493Z,52.03
2019-04-10T08:51:25.659Z,51.85
2019-04-10T08:53:55.625Z,57.58
2019-04-10T08:56:24.764Z,55.38
2019-04-10T08:58:53.109Z,56.80
2019-04-10T09:01:21.456Z,56.37
2019-04-10T09:03:51.509Z,57.67
2019-04-10T09:06:19.943Z,55.78
2019-04-10T09:08:48.921Z,55.67
2019-04-10T09:11:24.650Z,56.92
2019-04-10T09:13:47.226Z,53.75
2019-04-10T09:16:15.488Z,58.17
2019-04-10T09:18:43.740Z,55.73
2019-04-10T09:21:13.220Z,55.50
2019-04-10T09:23:47.293Z,56.68
2019-04-10T09:26:11.903Z,58.60
2019-04-10T09:28:40.265Z,54.38
2019-04-10T09:31:09.343Z,56.50
2019-04-10T09:33:38.951Z,55.40
2019-04-10T09:36:07.363Z,57.17
2019-04-10T09:38:36.840Z,57.17
2019-04-10T09:41:05.694Z,59.60
2019-04-10T09:43:34.086Z,53.30
2019-04-10T09:46:02.410Z,59.08
2019-04-10T09:48:31.611Z,59.23
2019-04-10T09:51:00.325Z,59.40
2019-04-10T09:53:28.797Z,56.80
2019-04-10T09:55:57.084Z,57.35
2019-04-10T09:58:26.190Z,54.83
2019-04-10T10:00:55.007Z,56.85
2019-04-10T10:03:24.125Z,59.77
2019-04-10T10:05:53.091Z,60.23
2019-04-10T10:08:22.544Z,57.78
2019-04-10T10:10:50.897Z,56.23
2019-04-10T10:13:19.306Z,63.78
2019-04-10T10:15:47.542Z,59.05
2019-04-10T10:18:15.813Z,56.48
2019-04-10T10:20:44.083Z,58.95
2019-04-10T10:23:12.314Z,59.65
2019-04-10T10:25:41.514Z,57.38
2019-04-10T10:28:11.713Z,62.43
2019-04-10T10:30:39.837Z,58.17
2019-04-10T10:33:08.127Z,61.02
2019-04-10T10:35:36.372Z,59.63
2019-04-10T10:38:05.402Z,61.63
2019-04-10T10:40:34.026Z,62.10
2019-04-10T10:43:02.535Z,62.50
2019-04-10T10:45:31.143Z,59.90
2019-04-10T10:47:59.512Z,61.25
2019-04-10T10:50:28.919Z,58.02
2019-04-10T10:52:57.609Z,63.83
2019-04-10T10:55:25.955Z,58.33
2019-04-10T10:57:55.337Z,58.02
2019-04-10T11:00:23.770Z,60.23
2019-04-10T11:02:52.034Z,60.28
2019-04-10T11:05:21.127Z,61.68
2019-04-10T11:07:49.456Z,61.63
2019-04-10T11:10:23.669Z,60.85
2019-04-10T11:12:48.372Z,64.85
2019-04-10T11:15:16.798Z,61.20
2019-04-10T11:17:46.062Z,60.20
2019-04-10T11:20:15.264Z,61.37
2019-04-10T11:22:43.613Z,58.28
2019-04-10T11:25:12.261Z,60.38
2019-04-10T11:27:42.093Z,59.98
2019-04-10T11:30:12.521Z,63.42
2019-04-10T11:32:42.255Z,60.52
2019-04-10T11:35:11.181Z,64.35
2019-04-10T11:37:44.588Z,61.05
2019-04-10T11:40:09.522Z,64.10
2019-04-10T11:42:39.782Z,61.33
2019-04-10T11:45:08.246Z,61.65
2019-04-10T11:47:38.859Z,64.75
2019-04-10T11:50:13.065Z,64.35
2019-04-10T11:52:42.519Z,59.85
2019-04-10T11:55:13.912Z,61.50
2019-04-10T11:57:37.876Z,62.40
2019-04-10T12:00:12.035Z,58.42
2019-04-10T12:02:39.435Z,58.23
2019-04-10T12:05:12.016Z,58.15
2019-04-10T12:08:00.512Z,57.17
2019-04-10T12:12:37.821Z,59.40
2019-04-10T12:15:08.029Z,59.63
2019-04-10T12:17:36.386Z,57.15
2019-04-10T12:20:06.937Z,62.35
2019-04-10T12:22:35.874Z,63.83
2019-04-10T12:25:05.639Z,59.13
2019-04-10T12:27:35.232Z,56.60
2019-04-10T12:30:06.852Z,55.23
2019-04-10T12:32:36.974Z,58.90
2019-04-10T12:35:06.852Z,56.85
2019-04-10T12:37:37.133Z,57.27
2019-04-10T12:40:07.344Z,55.50
2019-04-10T12:42:36.549Z,54.88
2019-04-10T12:45:06.226Z,56.30
2019-04-10T12:47:34.762Z,55.25
2019-04-10T12:50:05.711Z,58.95
2019-04-10T12:52:34.564Z,57.20
2019-04-10T12:55:03.935Z,55.63
2019-04-10T12:57:32.282Z,57.00
2019-04-10T13:00:04.033Z,51.58
2019-04-10T13:02:30.548Z,58.23
2019-04-10T13:04:58.842Z,58.83
2019-04-10T13:07:27.613Z,56.35
2019-04-10T13:09:55.996Z,56.18
2019-04-10T13:12:25.055Z,59.63
2019-04-10T13:14:53.437Z,55.80
2019-04-10T13:17:22.693Z,55.92
2019-04-10T13:19:51.410Z,61.77
2019-04-10T13:22:20.131Z,60.05
2019-04-10T13:24:48.438Z,60.03
2019-04-10T13:27:16.806Z,55.92
2019-04-10T13:29:45.051Z,59.63
2019-04-10T13:32:13.901Z,53.05
2019-04-10T13:34:42.341Z,57.85
2019-04-10T13:37:10.609Z,60.28
2019-04-10T13:39:39.245Z,58.83
2019-04-10T13:42:09.192Z,62.15
2019-04-10T13:44:38.392Z,56.02
2019-04-10T13:47:07.106Z,60.83
2019-04-10T13:49:35.743Z,59.70
2019-04-10T13:52:04.121Z,63.13
2019-04-10T13:54:32.585Z,60.70
2019-04-10T13:57:01.503Z,57.65
2019-04-10T13:59:31.062Z,62.40
2019-04-10T14:02:00.554Z,64.35
2019-04-10T14:04:31.243Z,64.82
2019-04-10T14:06:59.783Z,59.67
2019-04-10T14:09:35.878Z,70.22
2019-04-10T14:11:58.133Z,64.87
2019-04-10T14:14:26.726Z,65.75
2019-04-10T14:16:55.170Z,64.65
2019-04-10T14:19:23.787Z,100.18
2019-04-10T14:21:55.741Z,77.80
2019-04-10T14:24:24.950Z,62.65
2019-04-10T14:26:56.631Z,64.15
2019-04-10T14:29:25.289Z,61.83
2019-04-10T14:31:55.221Z,62.62
2019-04-10T14:34:23.469Z,58.33
2019-04-10T14:36:52.634Z,63.70
2019-04-10T14:39:21.778Z,62.83
2019-04-10T14:44:42.873Z,63.10
2019-04-10T14:47:13.336Z,72.58
2019-04-10T14:49:41.091Z,63.78
2019-04-10T14:52:10.655Z,60.73
2019-04-10T14:54:39.744Z,60.92
2019-04-10T14:57:08.095Z,63.60
2019-04-10T14:59:40.010Z,64.32
2019-04-10T15:02:10.562Z,62.45
2019-04-10T15:04:39.533Z,61.48
2019-04-10T15:07:08.135Z,59.10
2019-04-10T15:09:38.138Z,63.68
2019-04-10T15:12:07.274Z,69.40
2019-04-10T15:14:37.480Z,69.53
2019-04-10T15:17:06.608Z,62.67
2019-04-10T15:19:36.425Z,63.08
2019-04-10T15:22:04.949Z,60.58
2019-04-10T15:24:33.349Z,59.35
2019-04-10T15:27:02.742Z,67.12
2019-04-10T15:29:33.493Z,66.72
2019-04-10T15:32:06.338Z,60.23
2019-04-10T15:34:39.600Z,63.35
2019-04-10T15:37:08.861Z,61.83
2019-04-10T15:39:46.428Z,63.98
2019-04-10T15:45:08.434Z,64.27
2019-04-10T15:47:37.448Z,62.60
2019-04-10T15:50:07.155Z,61.50
2019-04-10T15:52:37.475Z,65.00
2019-04-10T15:55:05.980Z,63.80
2019-04-10T15:57:47.039Z,65.35
2019-04-10T16:00:08.630Z,68.55
2019-04-10T16:02:37.029Z,68.10
2019-04-10T16:05:07.110Z,62.62
2019-04-10T16:07:36.280Z,67.00
2019-04-10T16:10:13.494Z,66.42
2019-04-10T16:12:41.788Z,67.95
2019-04-10T16:18:01.797Z,67.40
2019-04-10T16:20:31.758Z,62.90
2019-04-10T16:23:10.728Z,64.32
2019-04-10T16:25:40.711Z,68.40
2019-04-10T16:28:11.040Z,67.30
2019-04-10T16:30:39.052Z,68.80
2019-04-10T16:33:07.322Z,65.12
2019-04-10T16:35:36.910Z,67.50
2019-04-10T16:38:06.911Z,67.87
2019-04-10T16:40:36.154Z,69.58
2019-04-10T16:43:06.103Z,70.83
2019-04-10T16:45:34.876Z,69.22
2019-04-10T16:48:03.463Z,72.45
2019-04-10T16:50:34.173Z,72.62
2019-04-10T16:53:03.357Z,70.60
2019-04-10T16:55:32.572Z,70.28
2019-04-10T16:58:01.251Z,70.95
2019-04-10T17:00:29.739Z,71.75
2019-04-10T17:02:57.990Z,69.90
2019-04-10T17:05:26.388Z,73.07
2019-04-10T17:07:55.279Z,75.05
2019-04-10T17:10:27.361Z,70.57
2019-04-10T17:12:55.603Z,74.97
2019-04-10T17:15:24.081Z,76.62
2019-04-10T17:17:55.015Z,74.53
2019-04-10T17:20:24.485Z,73.17
2019-04-10T17:22:54.256Z,81.92
2019-04-10T17:25:32.102Z,79.37
2019-04-10T17:28:01.655Z,76.22
2019-04-10T17:30:30.192Z,80.10
2019-04-10T17:32:58.452Z,81.40
2019-04-10T17:35:27.561Z,80.92
2019-04-10T17:37:56.203Z,77.72
2019-04-10T17:40:33.099Z,77.65
2019-04-10T17:42:54.909Z,77.95
2019-04-10T17:45:25.462Z,76.67
2019-04-10T17:47:56.460Z,78.35
2019-04-10T17:50:25.276Z,79.92
2019-04-10T17:52:53.725Z,80.53
2019-04-10T17:55:23.095Z,78.67
2019-04-10T17:57:54.385Z,79.05
2019-04-10T18:00:43.180Z,78.33
2019-04-10T18:03:13.027Z,82.02
2019-04-10T18:05:42.583Z,81.37
2019-04-10T18:08:11.107Z,80.90
2019-04-10T18:10:46.508Z,88.47
2019-04-10T18:13:09.432Z,88.15
2019-04-10T18:15:37.935Z,84.72
2019-04-10T18:18:07.325Z,79.77
2019-04-10T18:20:36.039Z,77.50
2019-04-10T18:23:04.376Z,86.67
2019-04-10T18:25:32.675Z,87.47
2019-04-10T18:28:01.199Z,85.10
2019-04-10T18:30:31.675Z,85.25
2019-04-10T18:33:00.229Z,87.12
2019-04-10T18:35:28.916Z,92.45
2019-04-10T18:37:58.641Z,93.72
2019-04-10T18:40:27.494Z,94.65
2019-04-10T18:42:58.104Z,89.70
2019-04-10T18:45:27.924Z,82.20
2019-04-10T18:47:56.481Z,77.80
2019-04-10T18:50:24.974Z,79.35
2019-04-10T18:52:53.948Z,73.55
2019-04-10T18:55:22.572Z,78.02
2019-04-10T18:57:51.428Z,77.90
2019-04-10T19:00:34.420Z,76.87
2019-04-10T19:03:07.558Z,73.25
2019-04-10T19:05:38.379Z,77.75
2019-04-10T19:08:07.057Z,80.15
2019-04-10T19:10:36.519Z,78.67
2019-04-10T19:13:05.550Z,78.92
2019-04-10T19:15:35.001Z,76.80
2019-04-10T19:18:03.694Z,79.87
2019-04-10T19:20:33.073Z,86.25
2019-04-10T19:23:01.495Z,103.55
2019-04-10T19:25:30.253Z,86.20
2019-04-10T19:27:58.765Z,77.78
2019-04-10T19:30:47.669Z,80.28
2019-04-10T19:33:16.222Z,81.85
2019-04-10T19:35:45.522Z,75.12
2019-04-10T19:38:13.883Z,73.92
2019-04-10T19:40:42.146Z,79.30
2019-04-10T19:43:10.508Z,77.32
2019-04-10T19:45:39.785Z,80.97
2019-04-10T19:48:08.997Z,77.37
2019-04-10T19:50:37.429Z,81.32
2019-04-10T19:53:05.736Z,75.67
2019-04-10T19:55:34.014Z,78.15
2019-04-10T19:58:02.280Z,77.12
2019-04-10T20:00:32.696Z,79.85
2019-04-10T20:03:01.504Z,80.00
2019-04-10T20:05:30.026Z,79.37
2019-04-10T20:07:59.530Z,80.83
2019-04-10T20:10:28.020Z,78.60
2019-04-10T20:12:57.212Z,74.60
2019-04-10T20:15:26.680Z,78.75
2019-04-10T20:17:55.186Z,78.00
2019-04-10T20:20:23.580Z,81.60
2019-04-10T20:22:51.878Z,75.08
2019-04-10T20:25:20.144Z,75.37
2019-04-10T20:27:48.469Z,80.42
2019-04-10T20:30:17.429Z,80.32
2019-04-10T20:32:46.082Z,84.40
2019-04-10T20:35:14.464Z,80.03
2019-04-10T20:37:42.992Z,85.05
2019-04-10T20:40:11.919Z,86.92
2019-04-10T20:42:40.463Z,82.72
2019-04-10T20:45:09.339Z,85.15
2019-04-10T20:47:37.771Z,83.50
2019-04-10T20:50:06.017Z,83.82
2019-04-10T20:52:34.674Z,83.03
2019-04-10T20:55:05.683Z,87.05
2019-04-10T20:57:35.262Z,86.02
2019-04-10T21:00:07.269Z,85.97
2019-04-10T21:02:36.215Z,86.32
2019-04-10T21:05:09.568Z,86.72
2019-04-10T21:07:37.375Z,92.17
2019-04-10T21:10:06.708Z,98.85
2019-04-10T21:12:35.012Z,86.28
2019-04-10T21:15:03.935Z,90.75
2019-04-10T21:17:42.330Z,81.78
2019-04-10T21:20:13.138Z,83.70
2019-04-10T21:22:40.776Z,85.38
2019-04-10T21:25:10.197Z,85.60
2019-04-10T21:27:39.662Z,88.50
2019-04-10T21:30:15.875Z,83.62
2019-04-10T21:32:49.547Z,90.60
2019-04-10T21:35:27.053Z,88.10
2019-04-10T21:37:55.526Z,87.30
2019-04-10T21:40:23.789Z,89.05
2019-04-10T21:42:52.069Z,84.65
2019-04-10T21:45:20.344Z,87.57
2019-04-10T21:47:48.660Z,89.40
2019-04-10T21:50:17.135Z,89.40
2019-04-10T21:52:47.592Z,86.67
2019-04-10T21:55:16.988Z,93.78
2019-04-10T21:57:45.441Z,89.22
2019-04-10T22:00:14.867Z,88.70
2019-04-10T22:02:45.009Z,88.27
2019-04-10T22:05:14.254Z,85.85
2019-04-10T22:07:50.319Z,87.97
2019-04-10T22:10:23.897Z,92.37
2019-04-10T22:12:52.739Z,90.62
2019-04-10T22:15:37.776Z,88.20
2019-04-10T22:18:07.172Z,89.60
2019-04-10T22:20:36.017Z,91.95
2019-04-10T22:23:04.438Z,117.70
2019-04-10T22:25:32.715Z,98.20
2019-04-10T22:28:01.049Z,91.40
2019-04-10T22:30:29.567Z,87.57
2019-04-10T22:32:57.939Z,85.12
2019-04-10T22:35:26.205Z,94.35
2019-04-10T22:37:54.508Z,85.12
2019-04-10T22:40:23.650Z,86.40
2019-04-10T22:42:53.171Z,85.87
2019-04-10T22:45:27.395Z,85.50
2019-04-10T22:47:56.353Z,83.07
2019-04-10T22:50:24.630Z,80.60
2019-04-10T22:52:52.963Z,85.30
2019-04-10T22:55:21.818Z,90.45
2019-04-10T22:57:50.567Z,90.85
2019-04-10T23:00:20.621Z,95.90
2019-04-10T23:02:49.191Z,89.47
2019-04-10T23:05:18.371Z,88.72
2019-04-10T23:07:47.226Z,88.62
2019-04-10T23:10:15.721Z,90.05
2019-04-10T23:12:52.277Z,88.52
2019-04-10T23:15:13.979Z,94.87
2019-04-10T23:17:43.185Z,89.87
2019-04-10T23:20:11.572Z,89.03
2019-04-10T23:22:41.059Z,88.55
2019-04-10T23:25:10.010Z,89.47
2019-04-10T23:27:38.448Z,88.97
2019-04-10T23:30:08.671Z,89.42
2019-04-10T23:32:37.491Z,83.92
2019-04-10T23:35:05.876Z,91.90
2019-04-10T23:37:35.033Z,85.35
2019-04-10T23:40:04.938Z,87.60
2019-04-10T23:42:33.307Z,86.08
2019-04-10T23:45:01.760Z,84.50
2019-04-10T23:47:30.184Z,86.80
2019-04-10T23:49:59.618Z,81.53
2019-04-10T23:52:28.077Z,82.02
2019-04-10T23:54:57.542Z,85.25
2019-04-10T23:57:25.892Z,88.12
2019-04-10T23:59:55.040Z,82.82
